createdAt,value
2018-12-09T00:00:31.328Z,927.8
2018-12-09T00:01:32.297Z,927.68
2018-12-09T00:02:32.709Z,927.52
2018-12-09T00:03:33.400Z,927.42
2018-12-09T00:04:33.624Z,927.29
2018-12-09T00:05:34.593Z,927.64
2018-12-09T00:06:35.239Z,927.22
2018-12-09T00:07:35.784Z,927.43
2018-12-09T00:08:36.555Z,927.23
2018-12-09T00:09:37.242Z,927.25
2018-12-09T00:10:38.216Z,927.07
2018-12-09T00:11:38.626Z,927.05
2018-12-09T00:12:39.758Z,927
2018-12-09T00:13:40.167Z,927.11
2018-12-09T00:14:40.577Z,927.04
2018-12-09T00:15:41.263Z,927.04
2018-12-09T00:16:42.397Z,926.99
2018-12-09T00:17:43.566Z,926.85
2018-12-09T00:18:44.256Z,926.81
2018-12-09T00:19:44.965Z,926.75
2018-12-09T00:20:45.469Z,926.8
2018-12-09T00:21:46.163Z,926.65
2018-12-09T00:22:47.231Z,926.59
2018-12-09T00:23:48.207Z,926.73
2018-12-09T00:24:48.619Z,926.77
2018-12-09T00:25:49.752Z,926.6
2018-12-09T00:26:50.164Z,926.49
2018-12-09T00:27:50.836Z,926.63
2018-12-09T00:28:51.525Z,926.42
2018-12-09T00:29:52.213Z,926.43
2018-12-09T00:30:52.905Z,926.52
2018-12-09T00:31:53.413Z,926.37
2018-12-09T00:32:54.822Z,926.66
2018-12-09T00:33:55.249Z,926.47
2018-12-09T00:34:56.213Z,926.35
2018-12-09T00:35:56.624Z,926.41
2018-12-09T00:36:57.034Z,926.32
2018-12-09T00:37:58.013Z,926.2
2018-12-09T00:38:58.421Z,926.3
2018-12-09T00:39:59.110Z,926.4
2018-12-09T00:40:59.460Z,926.34
2018-12-09T00:42:00.427Z,926.22
2018-12-09T00:43:00.937Z,926.25
2018-12-09T00:44:01.905Z,926.29
2018-12-09T00:45:02.425Z,926.19
2018-12-09T00:46:02.953Z,926.33
2018-12-09T00:47:03.365Z,926.2
2018-12-09T00:48:04.183Z,926.14
2018-12-09T00:49:05.600Z,926.24
2018-12-09T00:50:05.823Z,926.22
2018-12-09T00:51:07.315Z,925.87
2018-12-09T00:52:07.725Z,925.93
2018-12-09T00:53:07.969Z,925.81
2018-12-09T00:54:08.379Z,925.46
2018-12-09T00:55:09.514Z,925.67
2018-12-09T00:56:09.929Z,925.68
2018-12-09T00:57:10.455Z,925.67
2018-12-09T00:58:11.186Z,925.59
2018-12-09T00:59:11.598Z,925.57
2018-12-09T01:00:12.091Z,925.49
2018-12-09T01:01:13.227Z,925.87
2018-12-09T01:02:14.640Z,925.46
2018-12-09T01:03:15.049Z,925.62
2018-12-09T01:04:16.187Z,925.7
2018-12-09T01:05:17.594Z,925.57
2018-12-09T01:06:18.727Z,925.67
2018-12-09T01:07:19.693Z,925.75
2018-12-09T01:08:20.528Z,925.71
2018-12-09T01:09:21.711Z,925.63
2018-12-09T01:10:21.843Z,925.5
2018-12-09T01:11:22.975Z,925.54
2018-12-09T01:12:23.383Z,925.57
2018-12-09T01:13:23.796Z,925.69
2018-12-09T01:14:24.483Z,925.51
2018-12-09T01:15:25.173Z,925.67
2018-12-09T01:16:25.579Z,925.58
2018-12-09T01:17:25.987Z,925.5
2018-12-09T01:18:26.528Z,925.78
2018-12-09T01:19:26.754Z,925.72
2018-12-09T01:20:28.165Z,925.77
2018-12-09T01:21:28.606Z,925.33
2018-12-09T01:22:29.570Z,925.39
2018-12-09T01:23:30.031Z,925.66
2018-12-09T01:24:30.444Z,925.69
2018-12-09T01:25:31.435Z,925.57
2018-12-09T01:26:31.848Z,925.51
2018-12-09T01:27:32.550Z,925.45
2018-12-09T01:28:33.130Z,925.53
2018-12-09T01:29:33.663Z,925.51
2018-12-09T01:30:35.009Z,925.38
2018-12-09T01:31:35.757Z,925.25
2018-12-09T01:32:36.447Z,925.16
2018-12-09T01:33:37.896Z,925.22
2018-12-09T01:34:39.034Z,925.23
2018-12-09T01:35:39.457Z,925.27
2018-12-09T01:36:39.879Z,925.38
2018-12-09T01:37:41.023Z,925.03
2018-12-09T01:38:41.578Z,924.96
2018-12-09T01:39:42.279Z,924.96
2018-12-09T01:40:43.234Z,924.91
2018-12-09T01:41:43.606Z,924.83
2018-12-09T01:42:44.750Z,924.78
2018-12-09T01:43:46.174Z,924.73
2018-12-09T01:44:46.593Z,924.66
2018-12-09T01:45:47.350Z,924.66
2018-12-09T01:46:47.789Z,924.7
2018-12-09T01:47:48.526Z,924.69
2018-12-09T01:48:49.658Z,924.69
2018-12-09T01:49:50.805Z,924.83
2018-12-09T01:50:51.788Z,924.82
2018-12-09T01:51:52.518Z,924.69
2018-12-09T01:52:53.089Z,924.89
2018-12-09T01:53:54.466Z,924.89
2018-12-09T01:54:55.609Z,924.91
2018-12-09T01:55:56.026Z,924.88
2018-12-09T01:56:56.443Z,924.92
2018-12-09T01:57:57.137Z,924.72
2018-12-09T01:58:57.572Z,924.78
2018-12-09T01:59:58.999Z,924.74
2018-12-09T02:00:59.417Z,924.75
2018-12-09T02:01:59.851Z,924.71
2018-12-09T02:03:00.313Z,924.58
2018-12-09T02:04:00.512Z,924.6
2018-12-09T02:05:00.815Z,924.66
2018-12-09T02:06:01.232Z,924.63
2018-12-09T02:07:01.924Z,924.75
2018-12-09T02:08:02.356Z,924.85
2018-12-09T02:09:03.114Z,924.87
2018-12-09T02:10:03.854Z,924.77
2018-12-09T02:11:04.860Z,924.8
2018-12-09T02:12:06.132Z,924.78
2018-12-09T02:13:07.139Z,924.83
2018-12-09T02:14:07.914Z,924.86
2018-12-09T02:15:08.339Z,924.65
2018-12-09T02:16:08.779Z,924.79
2018-12-09T02:17:09.467Z,924.88
2018-12-09T02:18:09.992Z,924.73
2018-12-09T02:19:10.651Z,924.81
2018-12-09T02:20:11.349Z,924.82
2018-12-09T02:21:12.050Z,924.92
2018-12-09T02:22:13.022Z,924.63
2018-12-09T02:23:13.537Z,924.71
2018-12-09T02:24:13.961Z,924.75
2018-12-09T02:25:14.652Z,924.61
2018-12-09T02:26:14.840Z,924.74
2018-12-09T02:27:15.380Z,924.71
2018-12-09T02:28:16.088Z,924.57
2018-12-09T02:29:17.199Z,924.54
2018-12-09T02:30:18.634Z,924.55
2018-12-09T02:31:19.282Z,924.58
2018-12-09T02:32:19.985Z,924.41
2018-12-09T02:33:20.628Z,924.5
2018-12-09T02:34:21.886Z,924.5
2018-12-09T02:35:22.464Z,924.63
2018-12-09T02:36:23.680Z,924.64
2018-12-09T02:37:24.770Z,924.55
2018-12-09T02:38:25.453Z,924.6
2018-12-09T02:39:26.590Z,924.57
2018-12-09T02:40:27.959Z,924.44
2018-12-09T02:41:28.671Z,924.7
2018-12-09T02:42:29.831Z,924.93
2018-12-09T02:43:30.683Z,924.91
2018-12-09T02:44:31.675Z,924.63
2018-12-09T02:45:32.816Z,924.54
2018-12-09T02:46:33.789Z,924.68
2018-12-09T02:47:34.799Z,924.88
2018-12-09T02:48:35.544Z,924.7
2018-12-09T02:49:36.379Z,924.49
2018-12-09T02:50:36.814Z,924.76
2018-12-09T02:51:37.068Z,924.67
2018-12-09T02:52:37.782Z,924.51
2018-12-09T02:53:38.778Z,924.34
2018-12-09T02:54:39.478Z,924.26
2018-12-09T02:55:40.019Z,924.47
2018-12-09T02:56:41.086Z,924.47
2018-12-09T02:57:42.111Z,924.47
2018-12-09T02:58:42.531Z,924.5
2018-12-09T02:59:43.934Z,924.12
2018-12-09T03:00:44.846Z,924.4
2018-12-09T03:01:45.432Z,924.27
2018-12-09T03:02:46.440Z,924.27
2018-12-09T03:03:47.406Z,924.42
2018-12-09T03:04:48.376Z,924.4
2018-12-09T03:05:48.798Z,924.31
2018-12-09T03:06:49.785Z,924.37
2018-12-09T03:07:50.055Z,924.27
2018-12-09T03:08:50.319Z,924.4
2018-12-09T03:09:51.461Z,924.33
2018-12-09T03:10:52.435Z,924.36
2018-12-09T03:11:53.625Z,924.22
2018-12-09T03:12:54.613Z,924.03
2018-12-09T03:13:55.044Z,924.05
2018-12-09T03:14:55.458Z,924.12
2018-12-09T03:15:55.922Z,923.95
2018-12-09T03:16:56.622Z,923.97
2018-12-09T03:17:57.780Z,923.9
2018-12-09T03:18:58.036Z,923.85
2018-12-09T03:19:58.906Z,923.9
2018-12-09T03:20:59.608Z,923.92
2018-12-09T03:22:00.973Z,923.88
2018-12-09T03:23:01.601Z,923.92
2018-12-09T03:24:02.428Z,924.04
2018-12-09T03:25:03.571Z,923.89
2018-12-09T03:26:03.984Z,923.98
2018-12-09T03:27:04.990Z,923.96
2018-12-09T03:28:05.408Z,923.97
2018-12-09T03:29:06.003Z,923.85
2018-12-09T03:30:18.323Z,923.83
2018-12-09T03:31:19.736Z,923.83
2018-12-09T03:32:20.957Z,923.77
2018-12-09T03:33:21.609Z,923.66
2018-12-09T03:34:22.867Z,923.49
2018-12-09T03:35:23.964Z,923.45
2018-12-09T03:36:24.907Z,923.3
2018-12-09T03:37:25.367Z,923.15
2018-12-09T03:38:25.619Z,923.39
2018-12-09T03:39:26.322Z,923.38
2018-12-09T03:40:26.735Z,923.43
2018-12-09T03:41:27.669Z,923.43
2018-12-09T03:42:28.941Z,923.51
2018-12-09T03:43:29.635Z,923.56
2018-12-09T03:44:30.015Z,923.6
2018-12-09T03:45:30.442Z,923.59
2018-12-09T03:46:30.948Z,923.54
2018-12-09T03:47:31.171Z,923.53
2018-12-09T03:48:31.880Z,923.56
2018-12-09T03:49:32.318Z,923.54
2018-12-09T03:50:33.391Z,923.49
2018-12-09T03:51:34.123Z,923.51
2018-12-09T03:52:34.661Z,923.49
2018-12-09T03:53:35.647Z,923.54
2018-12-09T03:54:35.953Z,923.56
2018-12-09T03:55:36.664Z,923.55
2018-12-09T03:56:37.410Z,923.5
2018-12-09T03:57:37.589Z,923.42
2018-12-09T03:58:40.040Z,923.37
2018-12-09T03:59:40.754Z,923.37
2018-12-09T04:00:41.341Z,923.38
2018-12-09T04:01:41.788Z,923.37
2018-12-09T04:02:42.528Z,923.4
2018-12-09T04:03:42.947Z,923.52
2018-12-09T04:04:43.755Z,923.66
2018-12-09T04:05:44.760Z,923.6
2018-12-09T04:06:46.066Z,923.48
2018-12-09T04:07:46.320Z,923.4
2018-12-09T04:08:47.481Z,923.44
2018-12-09T04:09:48.758Z,923.64
2018-12-09T04:10:49.740Z,923.76
2018-12-09T04:11:50.587Z,923.77
2018-12-09T04:12:51.293Z,923.65
2018-12-09T04:13:51.552Z,923.72
2018-12-09T04:14:52.818Z,923.82
2018-12-09T04:15:53.797Z,923.83
2018-12-09T04:16:54.768Z,923.98
2018-12-09T04:17:55.966Z,924.13
2018-12-09T04:18:56.326Z,924.02
2018-12-09T04:19:57.308Z,924.04
2018-12-09T04:20:58.008Z,924.06
2018-12-09T04:21:58.856Z,924.16
2018-12-09T04:23:00.126Z,924.22
2018-12-09T04:24:00.404Z,924.21
2018-12-09T04:25:01.462Z,924.19
2018-12-09T04:26:02.720Z,924.26
2018-12-09T04:27:03.450Z,924.36
2018-12-09T04:28:04.167Z,924.45
2018-12-09T04:29:04.747Z,924.3
2018-12-09T04:30:05.720Z,924.43
2018-12-09T04:31:06.447Z,924.49
2018-12-09T04:32:07.030Z,924.51
2018-12-09T04:33:07.721Z,924.62
2018-12-09T04:34:08.488Z,924.67
2018-12-09T04:35:09.500Z,924.84
2018-12-09T04:36:10.223Z,924.78
2018-12-09T04:37:10.640Z,925.03
2018-12-09T04:38:11.349Z,925.09
2018-12-09T04:39:12.380Z,924.96
2018-12-09T04:40:13.533Z,924.92
2018-12-09T04:41:14.606Z,924.97
2018-12-09T04:42:15.173Z,925.13
2018-12-09T04:43:15.979Z,924.96
2018-12-09T04:44:16.965Z,925
2018-12-09T04:45:18.116Z,925.1
2018-12-09T04:46:18.817Z,925.04
2018-12-09T04:47:19.320Z,925.11
2018-12-09T04:48:19.744Z,925.11
2018-12-09T04:49:19.942Z,925.09
2018-12-09T04:50:21.279Z,925.13
2018-12-09T04:51:21.943Z,925.16
2018-12-09T04:52:23.081Z,925.11
2018-12-09T04:53:23.798Z,925.04
2018-12-09T04:54:24.510Z,924.95
2018-12-09T04:55:24.800Z,924.9
2018-12-09T04:56:25.255Z,924.9
2018-12-09T04:57:26.224Z,924.98
2018-12-09T04:58:27.208Z,924.76
2018-12-09T04:59:27.643Z,924.83
2018-12-09T05:00:28.640Z,924.69
2018-12-09T05:01:30.118Z,924.82
2018-12-09T05:02:31.243Z,924.78
2018-12-09T05:03:31.662Z,924.7
2018-12-09T05:04:32.797Z,924.69
2018-12-09T05:05:33.514Z,924.72
2018-12-09T05:06:34.498Z,924.58
2018-12-09T05:07:34.910Z,924.7
2018-12-09T05:08:36.047Z,924.49
2018-12-09T05:09:37.087Z,924.56
2018-12-09T05:10:37.516Z,924.51
2018-12-09T05:11:38.018Z,924.59
2018-12-09T05:12:39.043Z,924.39
2018-12-09T05:13:39.301Z,924.29
2018-12-09T05:14:39.842Z,924.46
2018-12-09T05:15:40.982Z,924.52
2018-12-09T05:16:41.532Z,924.38
2018-12-09T05:17:42.515Z,924.41
2018-12-09T05:18:43.211Z,924.4
2018-12-09T05:19:44.354Z,924.43
2018-12-09T05:20:45.413Z,924.4
2018-12-09T05:21:46.131Z,924.37
2018-12-09T05:22:47.452Z,924.51
2018-12-09T05:23:48.020Z,924.22
2018-12-09T05:24:49.171Z,924.53
2018-12-09T05:25:49.864Z,924.51
2018-12-09T05:26:50.289Z,924.64
2018-12-09T05:27:51.705Z,924.49
2018-12-09T05:28:52.674Z,924.63
2018-12-09T05:29:53.363Z,924.77
2018-12-09T05:30:53.775Z,924.66
2018-12-09T05:31:54.189Z,924.88
2018-12-09T05:32:55.154Z,924.73
2018-12-09T05:33:56.125Z,924.62
2018-12-09T05:34:56.831Z,924.56
2018-12-09T05:35:57.617Z,924.74
2018-12-09T05:36:58.972Z,924.54
2018-12-09T05:37:59.662Z,924.91
2018-12-09T05:39:00.712Z,924.68
2018-12-09T05:40:01.130Z,924.29
2018-12-09T05:41:02.456Z,924.49
2018-12-09T05:42:03.599Z,924.67
2018-12-09T05:43:04.445Z,924.56
2018-12-09T05:44:05.772Z,924.35
2018-12-09T05:45:06.133Z,924.33
2018-12-09T05:46:08.454Z,924.31
2018-12-09T05:47:08.007Z,924.33
2018-12-09T05:48:08.414Z,924.32
2018-12-09T05:49:08.828Z,924.33
2018-12-09T05:50:09.364Z,924.4
2018-12-09T05:51:10.500Z,924.41
2018-12-09T05:52:10.943Z,924.32
2018-12-09T05:53:11.789Z,924.49
2018-12-09T05:54:12.772Z,924.44
2018-12-09T05:55:13.631Z,924.48
2018-12-09T05:56:14.600Z,924.56
2018-12-09T05:57:15.745Z,924.46
2018-12-09T05:58:16.166Z,924.43
2018-12-09T05:59:16.592Z,924.57
2018-12-09T06:00:17.295Z,924.38
2018-12-09T06:01:18.003Z,924.31
2018-12-09T06:02:18.421Z,924.09
2018-12-09T06:03:19.368Z,924.34
2018-12-09T06:04:20.511Z,924.46
2018-12-09T06:05:22.060Z,924.35
2018-12-09T06:06:22.581Z,924.44
2018-12-09T06:07:23.718Z,924.5
2018-12-09T06:08:24.721Z,924.49
2018-12-09T06:09:25.415Z,924.67
2018-12-09T06:10:26.414Z,924.57
2018-12-09T06:11:27.168Z,924.62
2018-12-09T06:12:28.306Z,924.66
2018-12-09T06:13:29.431Z,924.8
2018-12-09T06:14:29.852Z,924.86
2018-12-09T06:15:31.009Z,924.83
2018-12-09T06:16:31.258Z,925.01
2018-12-09T06:17:32.080Z,925.12
2018-12-09T06:18:33.216Z,925.24
2018-12-09T06:19:34.201Z,925.36
2018-12-09T06:20:34.611Z,925.51
2018-12-09T06:21:35.027Z,925.64
2018-12-09T06:22:35.997Z,925.72
2018-12-09T06:23:36.833Z,925.76
2018-12-09T06:24:37.960Z,925.71
2018-12-09T06:25:38.474Z,925.71
2018-12-09T06:26:38.976Z,925.78
2018-12-09T06:27:39.468Z,925.86
2018-12-09T06:28:40.603Z,925.87
2018-12-09T06:29:41.743Z,926.04
2018-12-09T06:30:42.895Z,926.13
2018-12-09T06:31:43.309Z,926.38
2018-12-09T06:32:43.999Z,926.53
2018-12-09T06:33:44.555Z,926.53
2018-12-09T06:34:44.987Z,926.67
2018-12-09T06:35:45.964Z,926.48
2018-12-09T06:36:47.344Z,926.59
2018-12-09T06:37:48.655Z,926.53
2018-12-09T06:38:49.789Z,926.39
2018-12-09T06:39:50.490Z,926.55
2018-12-09T06:40:51.187Z,926.45
2018-12-09T06:41:51.602Z,926.39
2018-12-09T06:42:52.014Z,926.49
2018-12-09T06:43:52.851Z,926.52
2018-12-09T06:44:53.585Z,926.44
2018-12-09T06:45:54.270Z,926.44
2018-12-09T06:46:55.532Z,926.29
2018-12-09T06:47:56.158Z,926.41
2018-12-09T06:48:56.866Z,926.42
2018-12-09T06:49:58.001Z,926.38
2018-12-09T06:50:59.135Z,926.38
2018-12-09T06:51:59.566Z,926.43
2018-12-09T06:53:00.335Z,926.57
2018-12-09T06:54:01.334Z,926.53
2018-12-09T06:55:01.807Z,926.56
2018-12-09T06:56:02.795Z,926.54
2018-12-09T06:57:03.211Z,926.63
2018-12-09T06:58:03.643Z,926.76
2018-12-09T06:59:04.140Z,926.65
2018-12-09T07:00:04.552Z,926.72
2018-12-09T07:01:05.703Z,926.61
2018-12-09T07:02:06.394Z,926.62
2018-12-09T07:03:06.910Z,926.64
2018-12-09T07:04:08.039Z,926.46
2018-12-09T07:05:08.742Z,926.47
2018-12-09T07:06:09.208Z,926.5
2018-12-09T07:07:10.248Z,926.46
2018-12-09T07:08:11.417Z,926.56
2018-12-09T07:09:12.416Z,926.59
2018-12-09T07:10:12.842Z,926.54
2018-12-09T07:11:13.535Z,926.46
2018-12-09T07:12:13.961Z,926.6
2018-12-09T07:13:14.412Z,926.75
2018-12-09T07:14:15.211Z,926.71
2018-12-09T07:15:15.908Z,926.71
2018-12-09T07:16:16.341Z,926.59
2018-12-09T07:17:17.414Z,926.71
2018-12-09T07:18:18.755Z,926.66
2018-12-09T07:19:19.050Z,926.57
2018-12-09T07:20:20.037Z,926.42
2018-12-09T07:21:20.506Z,926.24
2018-12-09T07:22:20.754Z,926.07
2018-12-09T07:23:21.170Z,925.89
2018-12-09T07:24:22.073Z,925.78
2018-12-09T07:25:22.770Z,925.58
2018-12-09T07:26:23.741Z,925.64
2018-12-09T07:27:24.440Z,925.79
2018-12-09T07:28:24.857Z,925.9
2018-12-09T07:29:25.946Z,925.89
2018-12-09T07:30:26.198Z,925.85
2018-12-09T07:31:26.612Z,925.69
2018-12-09T07:32:27.313Z,925.86
2018-12-09T07:33:27.730Z,925.88
2018-12-09T07:34:28.579Z,925.8
2018-12-09T07:35:29.563Z,925.81
2018-12-09T07:36:30.552Z,925.96
2018-12-09T07:37:31.152Z,925.9
2018-12-09T07:38:31.623Z,925.99
2018-12-09T07:39:32.627Z,925.93
2018-12-09T07:40:33.606Z,925.88
2018-12-09T07:41:34.585Z,925.81
2018-12-09T07:42:35.595Z,925.93
2018-12-09T07:43:36.668Z,925.9
2018-12-09T07:44:37.531Z,925.81
2018-12-09T07:45:38.606Z,925.88
2018-12-09T07:46:39.302Z,925.96
2018-12-09T07:47:39.728Z,926.13
2018-12-09T07:48:40.806Z,926.06
2018-12-09T07:49:41.691Z,926.06
2018-12-09T07:50:42.214Z,925.93
2018-12-09T07:51:42.638Z,926.12
2018-12-09T07:52:43.052Z,926.28
2018-12-09T07:53:43.686Z,926.24
2018-12-09T07:54:44.228Z,926.44
2018-12-09T07:55:44.485Z,926.29
2018-12-09T07:56:45.454Z,926.48
2018-12-09T07:57:45.931Z,926.44
2018-12-09T07:58:47.067Z,926.31
2018-12-09T07:59:47.756Z,926.38
2018-12-09T08:00:48.446Z,926.38
2018-12-09T08:01:49.580Z,926.41
2018-12-09T08:02:50.988Z,926.46
2018-12-09T08:03:52.123Z,926.35
2018-12-09T08:04:52.951Z,926.39
2018-12-09T08:05:53.364Z,926.44
2018-12-09T08:06:54.643Z,926.47
2018-12-09T08:07:55.056Z,926.44
2018-12-09T08:08:57.243Z,926.42
2018-12-09T08:09:57.933Z,926.55
2018-12-09T08:10:58.899Z,926.43
2018-12-09T08:12:00.035Z,926.49
2018-12-09T08:13:00.559Z,926.53
2018-12-09T08:14:01.522Z,926.55
2018-12-09T08:15:02.633Z,926.68
2018-12-09T08:16:03.321Z,926.53
2018-12-09T08:17:04.457Z,926.55
2018-12-09T08:18:05.152Z,926.54
2018-12-09T08:19:06.287Z,926.56
2018-12-09T08:20:07.417Z,926.58
2018-12-09T08:21:09.703Z,926.5
2018-12-09T08:22:10.680Z,926.71
2018-12-09T08:23:11.372Z,926.73
2018-12-09T08:24:11.785Z,926.66
2018-12-09T08:25:12.784Z,926.81
2018-12-09T08:26:13.474Z,926.52
2018-12-09T08:27:14.009Z,926.74
2018-12-09T08:28:14.977Z,926.67
2018-12-09T08:29:15.394Z,926.67
2018-12-09T08:30:15.865Z,926.75
2018-12-09T08:31:16.939Z,926.87
2018-12-09T08:32:17.359Z,926.72
2018-12-09T08:33:17.771Z,926.76
2018-12-09T08:34:18.183Z,926.71
2018-12-09T08:35:18.725Z,926.93
2018-12-09T08:36:19.418Z,926.64
2018-12-09T08:37:19.839Z,926.66
2018-12-09T08:38:20.251Z,926.78
2018-12-09T08:39:20.945Z,926.68
2018-12-09T08:40:21.644Z,926.69
2018-12-09T08:41:22.893Z,926.94
2018-12-09T08:42:23.586Z,927
2018-12-09T08:43:23.998Z,926.91
2018-12-09T08:44:25.250Z,927
2018-12-09T08:45:25.629Z,927.06
2018-12-09T08:46:26.379Z,927.14
2018-12-09T08:47:27.072Z,927.15
2018-12-09T08:48:28.036Z,927.29
2018-12-09T08:49:29.171Z,927.26
2018-12-09T08:50:29.584Z,927.27
2018-12-09T08:51:30.274Z,927.27
2018-12-09T08:52:30.684Z,927.3
2018-12-09T08:53:31.932Z,927.34
2018-12-09T08:54:32.653Z,927.42
2018-12-09T08:55:35.328Z,927.28
2018-12-09T08:56:36.790Z,927.32
2018-12-09T08:57:36.590Z,927.38
2018-12-09T08:58:37.285Z,927.39
2018-12-09T08:59:37.703Z,927.44
2018-12-09T09:00:38.470Z,927.41
2018-12-09T09:01:39.599Z,927.36
2018-12-09T09:02:40.011Z,927.47
2018-12-09T09:03:40.703Z,927.61
2018-12-09T09:04:41.119Z,927.6
2018-12-09T09:05:42.494Z,927.71
2018-12-09T09:06:43.631Z,927.72
2018-12-09T09:07:44.042Z,927.83
2018-12-09T09:08:44.568Z,927.75
2018-12-09T09:09:45.259Z,927.86
2018-12-09T09:10:46.405Z,927.93
2018-12-09T09:11:46.645Z,928.08
2018-12-09T09:12:47.614Z,928.05
2018-12-09T09:13:48.123Z,928.06
2018-12-09T09:14:48.536Z,928.06
2018-12-09T09:15:49.218Z,928.13
2018-12-09T09:16:49.912Z,928.07
2018-12-09T09:17:51.044Z,928.18
2018-12-09T09:18:52.181Z,928.25
2018-12-09T09:19:52.872Z,928.22
2018-12-09T09:20:53.286Z,928.44
2018-12-09T09:21:53.978Z,928.36
2018-12-09T09:22:54.408Z,928.35
2018-12-09T09:23:55.542Z,928.33
2018-12-09T09:24:57.460Z,928.49
2018-12-09T09:25:58.017Z,928.39
2018-12-09T09:26:58.988Z,928.42
2018-12-09T09:28:00.401Z,928.47
2018-12-09T09:29:01.407Z,928.62
2018-12-09T09:30:02.380Z,928.48
2018-12-09T09:31:03.348Z,928.5
2018-12-09T09:32:03.760Z,928.49
2018-12-09T09:33:04.175Z,928.52
2018-12-09T09:34:04.585Z,928.62
2018-12-09T09:35:05.554Z,928.52
2018-12-09T09:36:05.826Z,928.55
2018-12-09T09:37:06.240Z,928.52
2018-12-09T09:38:07.488Z,928.47
2018-12-09T09:39:07.903Z,928.49
2018-12-09T09:40:08.594Z,928.55
2018-12-09T09:41:09.004Z,928.58
2018-12-09T09:42:09.705Z,928.54
2018-12-09T09:43:10.387Z,928.6
2018-12-09T09:44:10.797Z,928.69
2018-12-09T09:45:12.867Z,928.6
2018-12-09T09:46:13.099Z,928.54
2018-12-09T09:47:14.514Z,928.59
2018-12-09T09:48:15.308Z,928.53
2018-12-09T09:49:15.723Z,928.46
2018-12-09T09:50:16.704Z,928.48
2018-12-09T09:51:17.394Z,928.51
2018-12-09T09:52:19.921Z,928.35
2018-12-09T09:53:20.188Z,928.38
2018-12-09T09:54:21.156Z,928.39
2018-12-09T09:55:22.531Z,928.33
2018-12-09T09:56:23.425Z,928.23
2018-12-09T09:57:24.568Z,928.25
2018-12-09T09:58:25.384Z,928.43
2018-12-09T09:59:27.782Z,928.59
2018-12-09T10:00:28.398Z,928.47
2018-12-09T10:01:28.809Z,928.38
2018-12-09T10:02:29.944Z,928.35
2018-12-09T10:03:30.641Z,928.32
2018-12-09T10:04:31.402Z,928.23
2018-12-09T10:05:32.127Z,928.18
2018-12-09T10:06:32.685Z,928.33
2018-12-09T10:07:34.124Z,928.29
2018-12-09T10:08:34.540Z,928.3
2018-12-09T10:09:35.510Z,928.25
2018-12-09T10:10:36.198Z,928.29
2018-12-09T10:11:36.887Z,928.24
2018-12-09T10:12:37.578Z,928.11
2018-12-09T10:13:38.280Z,928.16
2018-12-09T10:14:38.977Z,928.13
2018-12-09T10:15:39.669Z,928.16
2018-12-09T10:16:40.609Z,928.06
2018-12-09T10:17:41.745Z,927.83
2018-12-09T10:18:41.994Z,927.92
2018-12-09T10:19:42.411Z,928.03
2018-12-09T10:20:43.377Z,928
2018-12-09T10:21:44.079Z,928.02
2018-12-09T10:22:44.493Z,927.98
2018-12-09T10:23:44.910Z,928.06
2018-12-09T10:24:45.322Z,928.17
2018-12-09T10:25:47.231Z,927.98
2018-12-09T10:25:57.773Z,928.03
2018-12-09T10:26:42.498Z,928.08
2018-12-09T10:27:43.057Z,928.1
2018-12-09T10:28:44.033Z,928.12
2018-12-09T10:29:45.447Z,927.94
2018-12-09T10:30:45.861Z,928.01
2018-12-09T10:31:46.831Z,927.89
2018-12-09T10:32:47.521Z,928.07
2018-12-09T10:33:49.859Z,928.04
2018-12-09T10:34:50.551Z,927.96
2018-12-09T10:35:51.522Z,928.05
2018-12-09T10:36:52.221Z,928.01
2018-12-09T10:37:52.771Z,928.03
2018-12-09T10:38:53.463Z,927.94
2018-12-09T10:39:54.599Z,927.92
2018-12-09T10:40:55.291Z,927.96
2018-12-09T10:41:55.983Z,927.96
2018-12-09T10:42:57.120Z,927.98
2018-12-09T10:43:57.552Z,927.84
2018-12-09T10:44:58.688Z,927.85
2018-12-09T10:45:59.383Z,927.9
2018-12-09T10:47:00.811Z,927.99
2018-12-09T10:48:01.190Z,927.81
2018-12-09T10:49:01.714Z,927.78
2018-12-09T10:50:02.186Z,927.75
2018-12-09T10:51:02.878Z,927.73
2018-12-09T10:52:03.568Z,927.76
2018-12-09T10:53:03.987Z,927.75
2018-12-09T10:54:04.677Z,927.71
2018-12-09T10:55:05.373Z,927.73
2018-12-09T10:56:05.892Z,927.61
2018-12-09T10:57:06.596Z,927.52
2018-12-09T10:58:07.234Z,927.59
2018-12-09T10:59:08.200Z,927.47
2018-12-09T11:00:09.172Z,927.57
2018-12-09T11:01:09.869Z,927.52
2018-12-09T11:02:11.009Z,927.49
2018-12-09T11:03:11.707Z,927.37
2018-12-09T11:04:12.845Z,927.52
2018-12-09T11:05:13.981Z,927.33
2018-12-09T11:06:14.672Z,927.43
2018-12-09T11:07:15.087Z,927.4
2018-12-09T11:08:17.333Z,927.35
2018-12-09T11:09:17.753Z,927.26
2018-12-09T11:10:18.260Z,927.27
2018-12-09T11:11:19.320Z,927.31
2018-12-09T11:12:19.767Z,927.33
2018-12-09T11:13:20.583Z,927.25
2018-12-09T11:14:20.836Z,927.29
2018-12-09T11:15:21.855Z,927.31
2018-12-09T11:16:22.368Z,927.33
2018-12-09T11:17:23.338Z,927.18
2018-12-09T11:18:24.449Z,927.17
2018-12-09T11:19:25.422Z,927.2
2018-12-09T11:20:26.556Z,927.3
2018-12-09T11:21:31.099Z,927.27
2018-12-09T11:22:31.519Z,927.33
2018-12-09T11:23:31.769Z,927.21
2018-12-09T11:24:32.460Z,927.15
2018-12-09T11:25:33.863Z,927.15
2018-12-09T11:25:45.166Z,927.25
2018-12-09T11:26:45.231Z,927.19
2018-12-09T11:27:46.209Z,927.2
2018-12-09T11:28:47.175Z,927.15
2018-12-09T11:29:48.312Z,927.17
2018-12-09T11:30:49.107Z,927.18
2018-12-09T11:31:50.341Z,927.21
2018-12-09T11:32:51.110Z,927.16
2018-12-09T11:33:51.802Z,927.06
2018-12-09T11:34:53.051Z,927.02
2018-12-09T11:35:53.747Z,926.88
2018-12-09T11:36:54.303Z,926.89
2018-12-09T11:37:54.997Z,926.89
2018-12-09T11:38:55.968Z,926.88
2018-12-09T11:39:56.386Z,926.92
2018-12-09T11:40:57.360Z,926.94
2018-12-09T11:41:57.778Z,926.94
2018-12-09T11:42:58.747Z,926.8
2018-12-09T11:43:59.725Z,926.91
2018-12-09T11:45:00.252Z,926.88
2018-12-09T11:46:00.497Z,926.97
2018-12-09T11:47:00.828Z,926.89
2018-12-09T11:48:02.032Z,926.8
2018-12-09T11:49:02.379Z,926.94
2018-12-09T11:50:03.352Z,927.03
2018-12-09T11:51:04.174Z,926.91
2018-12-09T11:52:04.617Z,926.97
2018-12-09T11:53:07.754Z,926.91
2018-12-09T11:54:09.179Z,926.85
2018-12-09T11:55:09.874Z,926.95
2018-12-09T11:56:12.078Z,926.76
2018-12-09T11:56:23.721Z,926.72
2018-12-09T11:56:35.795Z,926.66
2018-12-09T11:56:48.173Z,926.65
2018-12-09T11:57:47.966Z,926.74
2018-12-09T11:58:49.104Z,926.93
2018-12-09T11:59:49.521Z,926.71
2018-12-09T12:00:50.217Z,926.68
2018-12-09T12:01:50.634Z,926.77
2018-12-09T12:02:51.486Z,926.71
2018-12-09T12:03:52.183Z,926.77
2018-12-09T12:04:53.155Z,926.74
2018-12-09T12:05:53.636Z,926.51
2018-12-09T12:06:54.778Z,926.68
2018-12-09T12:07:55.292Z,926.63
2018-12-09T12:08:55.707Z,926.64
2018-12-09T12:09:56.844Z,926.66
2018-12-09T12:10:57.601Z,926.63
2018-12-09T12:11:58.013Z,926.46
2018-12-09T12:12:58.984Z,926.69
2018-12-09T12:13:59.405Z,926.63
2018-12-09T12:14:59.819Z,926.66
2018-12-09T12:16:00.796Z,926.67
2018-12-09T12:17:01.323Z,926.55
2018-12-09T12:18:01.708Z,926.74
2018-12-09T12:19:02.406Z,926.57
2018-12-09T12:20:02.936Z,926.65
2018-12-09T12:21:04.075Z,926.83
2018-12-09T12:22:04.486Z,926.63
2018-12-09T12:23:04.943Z,926.63
2018-12-09T12:24:06.359Z,926.76
2018-12-09T12:25:06.783Z,926.51
2018-12-09T12:26:07.735Z,926.57
2018-12-09T12:27:08.590Z,926.68
2018-12-09T12:28:09.511Z,926.65
2018-12-09T12:29:09.921Z,926.51
2018-12-09T12:30:10.620Z,926.56
2018-12-09T12:31:12.038Z,926.69
2018-12-09T12:32:12.733Z,926.64
2018-12-09T12:33:13.150Z,926.36
2018-12-09T12:34:13.565Z,926.64
2018-12-09T12:35:13.980Z,926.5
2018-12-09T12:36:14.439Z,926.59